createdAt,value
2018-02-12T00:00:26.888Z,3.60
2018-02-12T00:02:54.332Z,3.50
2018-02-12T00:05:21.785Z,3.30
2018-02-12T00:07:49.224Z,3.10
2018-02-12T00:10:16.685Z,3.00
2018-02-12T00:12:44.130Z,3.00
2018-02-12T00:15:12.333Z,2.90
2018-02-12T00:17:39.784Z,2.90
2018-02-12T00:20:07.225Z,2.90
2018-02-12T00:22:34.681Z,2.90
2018-02-12T00:25:02.898Z,2.90
2018-02-12T00:36:02.868Z,2.80
2018-02-12T00:38:30.320Z,2.80
2018-02-12T00:40:57.773Z,2.80
2018-02-12T00:43:25.214Z,2.80
2018-02-12T00:45:52.672Z,2.80
2018-02-12T00:48:20.113Z,2.90
2018-02-12T00:50:47.560Z,2.90
2018-02-12T00:53:15.781Z,2.90
2018-02-12T00:55:43.234Z,2.90
2018-02-12T00:58:10.688Z,2.90
2018-02-12T01:00:38.231Z,2.90
2018-02-12T01:03:05.668Z,2.90
2018-02-12T01:05:33.112Z,3.00
2018-02-12T01:08:01.338Z,3.00
2018-02-12T01:10:28.776Z,2.90
2018-02-12T01:12:56.235Z,3.00
2018-02-12T01:15:23.681Z,3.00
2018-02-12T01:17:51.138Z,3.00
2018-02-12T01:20:18.581Z,3.00
2018-02-12T01:22:46.027Z,3.00
2018-02-12T01:25:14.241Z,3.10
2018-02-12T01:27:41.693Z,3.10
2018-02-12T01:30:09.137Z,3.10
2018-02-12T01:32:36.589Z,3.10
2018-02-12T01:35:04.037Z,3.10
2018-02-12T01:37:31.489Z,3.10
2018-02-12T01:39:59.697Z,3.10
2018-02-12T01:42:27.148Z,3.00
2018-02-12T01:44:54.599Z,3.10
2018-02-12T01:47:22.064Z,3.00
2018-02-12T01:52:48.732Z,3.00
2018-02-12T01:55:16.176Z,3.00
2018-02-12T01:57:43.627Z,3.00
2018-02-12T02:00:11.077Z,3.00
2018-02-12T02:02:38.527Z,3.10
2018-02-12T02:05:05.969Z,3.10
2018-02-12T02:07:34.185Z,3.00
2018-02-12T02:10:01.633Z,3.00
2018-02-12T02:12:29.083Z,3.00
2018-02-12T02:14:56.537Z,3.00
2018-02-12T02:17:23.980Z,2.90
2018-02-12T02:19:51.428Z,2.90
2018-02-12T02:22:19.640Z,2.90
2018-02-12T02:24:47.097Z,2.90
2018-02-12T02:27:14.540Z,2.90
2018-02-12T02:29:42.016Z,2.90
2018-02-12T02:32:09.481Z,2.90
2018-02-12T02:34:37.700Z,3.00
2018-02-12T02:37:05.904Z,2.90
2018-02-12T02:39:33.359Z,2.90
2018-02-12T02:42:00.796Z,2.90
2018-02-12T02:44:28.251Z,3.00
2018-02-12T02:46:56.456Z,2.90
2018-02-12T02:49:23.916Z,2.90
2018-02-12T02:51:51.370Z,2.90
2018-02-12T02:54:18.816Z,2.90
2018-02-12T02:56:46.261Z,2.90
2018-02-12T02:59:13.705Z,3.00
2018-02-12T03:01:41.164Z,3.00
2018-02-12T03:04:08.624Z,3.00
2018-02-12T03:06:36.064Z,3.00
2018-02-12T03:09:04.332Z,3.00
2018-02-12T03:11:32.540Z,3.00
2018-02-12T03:13:59.993Z,3.00
2018-02-12T03:16:27.450Z,3.00
2018-02-12T03:18:54.892Z,3.00
2018-02-12T03:21:22.352Z,3.10
2018-02-12T03:23:49.803Z,3.10
2018-02-12T03:26:18.026Z,3.10
2018-02-12T03:28:45.473Z,3.10
2018-02-12T03:31:12.925Z,3.10
2018-02-12T03:33:40.372Z,3.10
2018-02-12T03:36:07.830Z,3.10
2018-02-12T03:38:35.273Z,3.00
2018-02-12T03:41:02.733Z,3.00
2018-02-12T03:43:30.182Z,3.00
2018-02-12T03:45:57.637Z,3.00
2018-02-12T03:48:25.081Z,2.90
2018-02-12T03:50:53.304Z,2.90
2018-02-12T03:53:20.748Z,2.90
2018-02-12T03:55:48.210Z,2.90
2018-02-12T03:58:15.655Z,2.80
2018-02-12T04:00:43.162Z,2.80
2018-02-12T04:03:10.562Z,2.80
2018-02-12T04:05:38.009Z,2.80
2018-02-12T04:08:05.455Z,2.80
2018-02-12T04:10:33.672Z,2.80
2018-02-12T04:13:01.117Z,2.80
2018-02-12T04:15:28.569Z,2.90
2018-02-12T04:17:56.019Z,2.90
2018-02-12T04:20:23.490Z,2.90
2018-02-12T04:22:50.928Z,2.90
2018-02-12T04:25:18.407Z,2.90
2018-02-12T04:27:45.854Z,2.90
2018-02-12T04:30:13.296Z,2.90
2018-02-12T04:32:40.746Z,2.90
2018-02-12T04:35:08.193Z,2.90
2018-02-12T04:37:36.410Z,2.90
2018-02-12T04:40:03.862Z,3.00
2018-02-12T04:42:31.321Z,3.00
2018-02-12T04:44:58.765Z,2.90
2018-02-12T04:47:26.222Z,2.90
2018-02-12T04:49:53.665Z,3.00
2018-02-12T04:52:21.116Z,3.00
2018-02-12T04:54:48.569Z,3.00
2018-02-12T04:57:16.025Z,2.90
2018-02-12T04:59:44.229Z,2.90
2018-02-12T05:02:11.685Z,2.80
2018-02-12T05:04:39.137Z,2.80
2018-02-12T05:07:06.588Z,2.80
2018-02-12T05:09:34.037Z,2.80
2018-02-12T05:12:01.483Z,2.80
2018-02-12T05:14:28.936Z,2.80
2018-02-12T05:16:56.401Z,2.80
2018-02-12T05:19:23.872Z,2.70
2018-02-12T05:21:51.332Z,2.70
2018-02-12T05:24:18.776Z,2.60
2018-02-12T05:26:46.230Z,2.60
2018-02-12T05:29:13.677Z,2.60
2018-02-12T05:31:41.149Z,2.60
2018-02-12T05:34:08.592Z,2.60
2018-02-12T05:36:36.033Z,2.60
2018-02-12T05:39:04.248Z,2.60
2018-02-12T05:41:31.698Z,2.60
2018-02-12T05:43:59.153Z,2.60
2018-02-12T05:46:26.599Z,2.50
2018-02-12T05:48:54.049Z,2.50
2018-02-12T05:51:21.488Z,2.50
2018-02-12T05:53:49.706Z,2.50
2018-02-12T05:56:17.153Z,2.40
2018-02-12T05:58:44.605Z,2.50
2018-02-12T06:01:12.049Z,2.50
2018-02-12T06:03:39.509Z,2.50
2018-02-12T06:06:06.952Z,2.50
2018-02-12T06:08:35.173Z,2.60
2018-02-12T06:11:02.617Z,2.60
2018-02-12T06:13:30.073Z,2.60
2018-02-12T06:15:57.518Z,2.60
2018-02-12T06:18:24.974Z,2.60
2018-02-12T06:20:52.409Z,2.60
2018-02-12T06:23:20.625Z,2.60
2018-02-12T06:25:48.071Z,2.60
2018-02-12T06:28:15.525Z,2.60
2018-02-12T06:30:42.966Z,2.60
2018-02-12T06:33:10.440Z,2.60
2018-02-12T06:35:37.873Z,2.50
2018-02-12T06:38:05.321Z,2.60
2018-02-12T06:40:33.536Z,2.50
2018-02-12T06:43:01.000Z,2.50
2018-02-12T06:48:02.417Z,2.50
2018-02-12T06:50:30.624Z,2.40
2018-02-12T06:52:58.069Z,2.40
2018-02-12T06:55:25.517Z,2.40
2018-02-12T06:57:52.961Z,2.30
2018-02-12T07:00:21.180Z,2.30
2018-02-12T07:02:48.624Z,2.30
2018-02-12T07:05:16.088Z,2.30
2018-02-12T07:07:43.530Z,2.30
2018-02-12T07:10:10.972Z,2.30
2018-02-12T07:12:38.433Z,2.30
2018-02-12T07:15:05.882Z,2.30
2018-02-12T07:17:33.333Z,2.30
2018-02-12T07:20:00.788Z,2.30
2018-02-12T07:22:28.233Z,2.30
2018-02-12T07:24:56.448Z,2.30
2018-02-12T07:27:23.900Z,2.30
2018-02-12T07:29:51.357Z,2.30
2018-02-12T07:32:18.801Z,2.30
2018-02-12T07:34:46.252Z,2.40
2018-02-12T07:37:13.705Z,2.40
2018-02-12T07:39:41.157Z,2.40
2018-02-12T07:42:09.382Z,2.50
2018-02-12T07:44:36.829Z,2.50
2018-02-12T07:47:04.273Z,2.50
2018-02-12T07:49:31.730Z,2.50
2018-02-12T07:51:59.178Z,2.50
2018-02-12T07:54:26.639Z,2.50
2018-02-12T07:56:54.085Z,2.50
2018-02-12T07:59:21.528Z,2.50
2018-02-12T08:01:48.985Z,2.60
2018-02-12T08:04:17.194Z,2.60
2018-02-12T08:06:44.683Z,2.60
2018-02-12T08:09:12.124Z,2.60
2018-02-12T08:11:39.576Z,2.60
2018-02-12T08:14:07.021Z,2.60
2018-02-12T08:16:34.478Z,2.60
2018-02-12T08:19:01.929Z,2.60
2018-02-12T08:21:29.390Z,2.60
2018-02-12T08:23:56.838Z,2.50
2018-02-12T08:26:24.303Z,2.50
2018-02-12T08:28:51.749Z,2.60
2018-02-12T08:31:19.209Z,2.50
2018-02-12T08:33:46.653Z,2.50
2018-02-12T08:36:14.109Z,2.50
2018-02-12T08:38:41.557Z,2.50
2018-02-12T08:41:09.014Z,2.50
2018-02-12T08:43:36.457Z,2.50
2018-02-12T08:46:04.673Z,2.50
2018-02-12T08:48:32.129Z,2.50
2018-02-12T08:50:59.601Z,2.50
2018-02-12T08:53:27.057Z,2.60
2018-02-12T08:55:54.508Z,2.60
2018-02-12T08:58:21.962Z,2.70
2018-02-12T09:00:49.418Z,2.80
2018-02-12T09:03:16.878Z,2.90
2018-02-12T09:05:44.328Z,3.00
2018-02-12T09:08:11.809Z,3.00
2018-02-12T09:10:39.230Z,3.00
2018-02-12T09:13:06.694Z,3.00
2018-02-12T09:15:34.134Z,3.00
2018-02-12T09:18:01.602Z,2.90
2018-02-12T09:20:29.052Z,2.80
2018-02-12T09:22:56.510Z,2.80
2018-02-12T09:25:23.965Z,2.70
2018-02-12T09:27:51.423Z,2.70
2018-02-12T09:30:18.869Z,2.80
2018-02-12T09:32:46.330Z,2.80
2018-02-12T09:35:13.773Z,2.70
2018-02-12T09:37:41.232Z,2.70
2018-02-12T09:40:08.668Z,2.70
2018-02-12T09:42:36.894Z,2.70
2018-02-12T09:45:04.348Z,2.70
2018-02-12T09:47:31.811Z,2.70
2018-02-12T09:49:59.258Z,2.70
2018-02-12T09:52:26.718Z,2.80
2018-02-12T09:54:54.165Z,2.80
2018-02-12T09:57:21.624Z,2.80
2018-02-12T09:59:49.073Z,2.90
2018-02-12T10:02:16.534Z,2.90
2018-02-12T10:04:43.981Z,3.00
2018-02-12T10:07:11.436Z,3.00
2018-02-12T10:09:38.881Z,3.10
2018-02-12T10:12:06.385Z,3.10
2018-02-12T10:14:33.836Z,3.20
2018-02-12T10:17:01.284Z,3.10
2018-02-12T10:19:28.737Z,3.10
2018-02-12T10:21:56.205Z,3.00
2018-02-12T10:24:23.668Z,3.00
2018-02-12T10:26:51.116Z,3.00
2018-02-12T10:29:18.570Z,3.00
2018-02-12T10:31:46.022Z,3.00
2018-02-12T10:34:13.481Z,3.00
2018-02-12T10:36:40.925Z,3.00
2018-02-12T10:39:08.396Z,3.00
2018-02-12T10:41:35.848Z,3.00
2018-02-12T10:44:03.292Z,3.10
2018-02-12T10:46:30.741Z,3.10
2018-02-12T10:48:58.200Z,3.20
2018-02-12T10:51:25.636Z,3.20
2018-02-12T10:53:53.865Z,3.30
2018-02-12T10:56:21.310Z,3.30
2018-02-12T10:58:48.761Z,3.30
2018-02-12T11:01:16.214Z,3.40
2018-02-12T11:03:43.666Z,3.50
2018-02-12T11:06:11.116Z,3.50
2018-02-12T11:08:38.584Z,3.50
2018-02-12T11:11:06.037Z,3.50
2018-02-12T11:13:33.490Z,3.60
2018-02-12T11:16:00.944Z,3.60
2018-02-12T11:18:28.402Z,3.60
2018-02-12T11:20:55.848Z,3.70
2018-02-12T11:23:23.322Z,3.70
2018-02-12T11:25:50.769Z,3.70
2018-02-12T11:28:18.222Z,3.70
2018-02-12T11:30:45.668Z,3.70
2018-02-12T11:33:13.129Z,3.70
2018-02-12T11:35:40.586Z,3.70
2018-02-12T11:38:08.033Z,3.70
2018-02-12T11:40:35.482Z,3.70
2018-02-12T11:43:03.701Z,3.70
2018-02-12T11:45:31.161Z,3.70
2018-02-12T11:47:58.610Z,3.70
2018-02-12T11:50:26.065Z,3.70
2018-02-12T11:52:53.519Z,3.80
2018-02-12T11:55:20.974Z,3.90
2018-02-12T11:57:48.432Z,4.00
2018-02-12T12:00:15.868Z,4.10
2018-02-12T12:02:43.317Z,4.20
2018-02-12T12:05:11.541Z,4.30
2018-02-12T12:07:38.984Z,4.30
2018-02-12T12:10:06.437Z,4.40
2018-02-12T12:12:33.925Z,4.40
2018-02-12T12:15:01.384Z,4.40
2018-02-12T12:17:28.832Z,4.50
2018-02-12T12:19:56.276Z,4.50
2018-02-12T12:22:23.724Z,4.60
2018-02-12T12:24:51.176Z,4.60
2018-02-12T12:27:18.629Z,4.60
2018-02-12T12:29:46.091Z,4.60
2018-02-12T12:32:13.538Z,4.50
2018-02-12T12:34:41.009Z,4.20
2018-02-12T12:37:08.458Z,3.80
2018-02-12T12:39:35.904Z,3.50
2018-02-12T12:42:03.384Z,3.30
2018-02-12T12:44:30.813Z,3.30
2018-02-12T12:46:58.292Z,3.30
2018-02-12T12:49:25.745Z,3.30
2018-02-12T12:51:53.966Z,3.40
2018-02-12T12:54:22.232Z,3.50
2018-02-12T12:56:49.634Z,3.40
2018-02-12T12:59:17.088Z,3.50
2018-02-12T13:01:44.545Z,3.60
2018-02-12T13:04:12.103Z,3.60
2018-02-12T13:06:39.550Z,3.70
2018-02-12T13:09:06.994Z,3.80
2018-02-12T13:11:34.463Z,3.80
2018-02-12T13:14:01.901Z,3.90
2018-02-12T13:16:30.125Z,3.90
2018-02-12T13:18:57.582Z,3.90
2018-02-12T13:21:25.037Z,3.90
2018-02-12T13:23:52.486Z,4.00
2018-02-12T13:26:19.937Z,4.00
2018-02-12T13:28:47.389Z,4.00
2018-02-12T13:31:14.842Z,3.90
2018-02-12T13:33:42.284Z,3.90
2018-02-12T13:36:09.744Z,3.80
2018-02-12T13:38:37.186Z,3.80
2018-02-12T13:41:05.397Z,3.90
2018-02-12T13:43:32.857Z,3.90
2018-02-12T13:46:00.308Z,4.00
2018-02-12T13:48:27.764Z,4.00
2018-02-12T13:50:55.214Z,3.90
2018-02-12T13:53:22.668Z,3.90
2018-02-12T13:55:50.125Z,3.80
2018-02-12T13:58:17.589Z,3.70
2018-02-12T14:00:45.047Z,3.70
2018-02-12T14:03:12.508Z,3.70
2018-02-12T14:05:39.986Z,3.70
2018-02-12T14:08:07.438Z,3.70
2018-02-12T14:10:34.890Z,3.80
2018-02-12T14:13:02.357Z,3.80
2018-02-12T14:15:29.806Z,3.80
2018-02-12T14:17:57.262Z,3.70
2018-02-12T14:20:24.712Z,3.60
2018-02-12T14:22:52.165Z,3.50
2018-02-12T14:25:19.608Z,3.30
2018-02-12T14:27:47.071Z,3.30
2018-02-12T14:30:14.526Z,3.20
2018-02-12T14:32:41.972Z,3.10
2018-02-12T14:35:09.440Z,3.00
2018-02-12T14:37:36.953Z,3.00
2018-02-12T14:40:04.345Z,2.80
2018-02-12T14:42:31.821Z,2.70
2018-02-12T14:44:59.286Z,2.50
2018-02-12T14:47:26.743Z,2.40
2018-02-12T14:49:54.963Z,2.20
2018-02-12T14:52:23.177Z,2.20
2018-02-12T14:54:50.634Z,2.20
2018-02-12T14:57:18.087Z,2.30
2018-02-12T14:59:45.547Z,2.30
2018-02-12T15:02:12.998Z,2.30
2018-02-12T15:04:40.447Z,2.40
2018-02-12T15:07:08.008Z,2.40
2018-02-12T15:09:35.454Z,2.40
2018-02-12T15:12:02.944Z,2.40
2018-02-12T15:14:30.410Z,2.30
2018-02-12T15:16:57.856Z,2.40
2018-02-12T15:19:25.308Z,2.40
2018-02-12T15:21:52.753Z,2.40
2018-02-12T15:24:20.213Z,2.40
2018-02-12T15:26:47.657Z,2.40
2018-02-12T15:29:15.117Z,2.40
2018-02-12T15:31:42.581Z,2.40
2018-02-12T15:34:10.033Z,2.50
2018-02-12T15:36:37.587Z,2.40
2018-02-12T15:39:05.023Z,2.50
2018-02-12T15:41:32.473Z,2.50
2018-02-12T15:44:00.686Z,2.50
2018-02-12T15:46:28.135Z,2.50
2018-02-12T15:48:55.584Z,2.50
2018-02-12T15:51:23.035Z,2.60
2018-02-12T15:53:50.542Z,2.60
2018-02-12T15:56:17.993Z,2.60
2018-02-12T15:58:45.433Z,2.60
2018-02-12T16:01:12.895Z,2.60
2018-02-12T16:03:40.345Z,2.60
2018-02-12T16:06:07.793Z,2.60
2018-02-12T16:08:35.241Z,2.70
2018-02-12T16:11:02.701Z,2.70
2018-02-12T16:13:30.147Z,2.60
2018-02-12T16:15:57.604Z,2.60
2018-02-12T16:18:25.057Z,2.60
2018-02-12T16:20:52.518Z,2.60
2018-02-12T16:23:19.961Z,2.60
2018-02-12T16:25:47.408Z,2.60
2018-02-12T16:28:14.856Z,2.60
2018-02-12T16:30:43.077Z,2.60
2018-02-12T16:33:11.297Z,2.60
2018-02-12T16:35:38.751Z,2.60
2018-02-12T16:38:06.201Z,2.60
2018-02-12T16:40:33.648Z,2.70
2018-02-12T16:43:01.105Z,2.60
2018-02-12T16:45:28.549Z,2.70
2018-02-12T16:47:55.997Z,2.70
2018-02-12T16:50:23.452Z,2.70
2018-02-12T16:52:50.900Z,2.60
2018-02-12T16:55:18.353Z,2.60
2018-02-12T16:57:45.802Z,2.60
2018-02-12T17:00:13.263Z,2.50
2018-02-12T17:02:40.712Z,2.50
2018-02-12T17:05:08.170Z,2.40
2018-02-12T17:07:35.620Z,2.30
2018-02-12T17:10:03.094Z,2.30
2018-02-12T17:12:30.541Z,2.20
2018-02-12T17:14:57.994Z,2.20
2018-02-12T17:17:25.445Z,2.20
2018-02-12T17:19:52.992Z,2.20
2018-02-12T17:22:20.457Z,2.20
2018-02-12T17:24:47.896Z,2.20
2018-02-12T17:27:16.132Z,2.10
2018-02-12T17:29:43.573Z,2.10
2018-02-12T17:32:11.025Z,2.10
2018-02-12T17:34:38.476Z,2.10
2018-02-12T17:37:05.929Z,2.10
2018-02-12T17:39:33.398Z,2.10
2018-02-12T17:42:00.844Z,2.10
2018-02-12T17:44:28.298Z,2.10
2018-02-12T17:46:55.765Z,2.10
2018-02-12T17:49:23.216Z,2.10
2018-02-12T17:51:50.673Z,2.00
2018-02-12T17:54:18.125Z,2.10
2018-02-12T17:56:45.586Z,2.10
2018-02-12T17:59:13.038Z,2.00
2018-02-12T18:01:40.485Z,2.00
2018-02-12T18:04:07.935Z,2.00
2018-02-12T18:06:35.392Z,2.00
2018-02-12T18:09:02.845Z,2.00
2018-02-12T18:11:30.328Z,2.00
2018-02-12T18:13:57.772Z,2.00
2018-02-12T18:16:25.225Z,2.00
2018-02-12T18:18:52.685Z,2.00
2018-02-12T18:21:20.137Z,1.90
2018-02-12T18:23:47.594Z,1.90
2018-02-12T18:26:15.042Z,1.90
2018-02-12T18:28:42.493Z,1.90
2018-02-12T18:31:09.952Z,1.90
2018-02-12T18:33:37.401Z,1.80
2018-02-12T18:36:05.615Z,1.80
2018-02-12T18:38:33.064Z,1.80
2018-02-12T18:41:00.514Z,1.80
2018-02-12T18:43:27.965Z,1.80
2018-02-12T18:45:55.416Z,1.80
2018-02-12T18:48:22.860Z,1.80
2018-02-12T18:50:50.318Z,1.80
2018-02-12T18:53:17.772Z,1.80
2018-02-12T18:55:45.230Z,1.70
2018-02-12T18:58:12.681Z,1.70
2018-02-12T19:00:40.892Z,1.70
2018-02-12T19:03:08.348Z,1.70
2018-02-12T19:05:57.500Z,1.70
2018-02-12T19:08:25.266Z,1.70
2018-02-12T19:10:52.717Z,1.70
2018-02-12T19:13:20.184Z,1.70
2018-02-12T19:15:47.619Z,1.70
2018-02-12T19:18:15.104Z,1.60
2018-02-12T19:20:42.549Z,1.60
2018-02-12T19:23:10.018Z,1.70
2018-02-12T19:25:37.465Z,1.60
2018-02-12T19:28:04.919Z,1.60
2018-02-12T19:30:32.367Z,1.60
2018-02-12T19:32:59.817Z,1.60
2018-02-12T19:35:27.268Z,1.60
2018-02-12T19:37:54.720Z,1.50
2018-02-12T19:40:22.205Z,1.50
2018-02-12T19:42:49.661Z,1.50
2018-02-12T19:45:17.117Z,1.50
2018-02-12T19:47:44.568Z,1.50
2018-02-12T19:50:19.614Z,1.50
2018-02-12T19:52:47.177Z,1.50
2018-02-12T19:55:14.637Z,1.50
2018-02-12T19:57:42.089Z,1.50
2018-02-12T20:00:09.546Z,1.50
2018-02-12T20:02:36.998Z,1.50
2018-02-12T20:05:04.457Z,1.40
2018-02-12T20:07:31.904Z,1.40
2018-02-12T20:09:59.359Z,1.40
2018-02-12T20:12:26.826Z,1.40
2018-02-12T20:14:54.276Z,1.30
2018-02-12T20:17:22.620Z,1.30
2018-02-12T20:19:50.849Z,1.30
2018-02-12T20:22:18.289Z,1.20
2018-02-12T20:24:45.745Z,1.20
2018-02-12T20:27:13.187Z,1.20
2018-02-12T20:29:40.654Z,1.20
2018-02-12T20:32:08.094Z,1.20
2018-02-12T20:34:35.583Z,1.20
2018-02-12T20:37:03.028Z,1.10
2018-02-12T20:39:30.486Z,1.10
2018-02-12T20:41:57.945Z,1.10
2018-02-12T20:44:25.414Z,1.10
2018-02-12T20:46:52.908Z,1.10
2018-02-12T20:49:20.337Z,1.10
2018-02-12T20:51:47.793Z,1.10
2018-02-12T20:54:15.241Z,1.10
2018-02-12T20:56:42.692Z,1.10
2018-02-12T20:59:10.149Z,1.10
2018-02-12T21:01:37.600Z,1.10
2018-02-12T21:04:05.088Z,1.10
2018-02-12T21:06:32.554Z,1.10
2018-02-12T21:08:59.997Z,1.00
2018-02-12T21:11:27.452Z,1.00
2018-02-12T21:13:54.917Z,1.00
2018-02-12T21:16:22.370Z,1.00
2018-02-12T21:18:49.813Z,1.00
2018-02-12T21:21:17.269Z,1.00
2018-02-12T21:23:44.714Z,0.90
2018-02-12T21:26:12.164Z,0.90
2018-02-12T21:28:39.619Z,0.90
2018-02-12T21:31:07.108Z,0.90
2018-02-12T21:33:34.636Z,0.90
2018-02-12T21:36:02.090Z,0.90
2018-02-12T21:38:29.543Z,0.90
2018-02-12T21:40:57.006Z,0.90
2018-02-12T21:43:24.462Z,0.90
2018-02-12T21:45:51.918Z,0.90
2018-02-12T21:48:19.360Z,0.90
2018-02-12T21:50:46.820Z,0.80
2018-02-12T21:53:14.257Z,0.80
2018-02-12T21:55:41.720Z,0.80
2018-02-12T21:58:09.165Z,0.80
2018-02-12T22:00:37.377Z,0.70
2018-02-12T22:03:04.865Z,0.70
2018-02-12T22:05:32.321Z,0.70
2018-02-12T22:07:59.774Z,0.80
2018-02-12T22:10:27.221Z,0.70
2018-02-12T22:12:54.686Z,0.70
2018-02-12T22:15:22.177Z,0.70
2018-02-12T22:17:50.410Z,0.70
2018-02-12T22:20:17.895Z,0.70
2018-02-12T22:22:45.349Z,0.60
2018-02-12T22:25:12.798Z,0.70
2018-02-12T22:27:40.289Z,0.70
2018-02-12T22:30:08.501Z,0.60
2018-02-12T22:32:35.949Z,0.60
2018-02-12T22:35:03.405Z,0.70
2018-02-12T22:37:30.860Z,0.70
2018-02-12T22:39:58.329Z,0.70
2018-02-12T22:42:25.787Z,0.70
2018-02-12T22:44:53.237Z,0.70
2018-02-12T22:47:20.697Z,0.60
2018-02-12T22:49:48.149Z,0.70
2018-02-12T22:52:15.609Z,0.70
2018-02-12T22:54:43.062Z,0.60
2018-02-12T22:57:10.513Z,0.60
2018-02-12T22:59:37.969Z,0.60
2018-02-12T23:02:05.416Z,0.60
2018-02-12T23:04:32.864Z,0.70
2018-02-12T23:07:00.317Z,0.70
2018-02-12T23:09:27.773Z,0.70
2018-02-12T23:11:55.230Z,0.70
2018-02-12T23:14:22.681Z,0.60
2018-02-12T23:16:55.821Z,0.60
2018-02-12T23:19:23.266Z,0.60
2018-02-12T23:21:50.728Z,0.60
2018-02-12T23:24:18.172Z,0.60
2018-02-12T23:26:45.623Z,0.60
2018-02-12T23:29:13.074Z,0.60
2018-02-12T23:31:40.527Z,0.60
2018-02-12T23:34:07.982Z,0.60
2018-02-12T23:36:35.440Z,0.60
2018-02-12T23:39:02.897Z,0.60
2018-02-12T23:41:30.337Z,0.60
2018-02-12T23:43:57.794Z,0.60
2018-02-12T23:46:25.240Z,0.60
2018-02-12T23:48:53.461Z,0.50
2018-02-12T23:51:20.909Z,0.50
2018-02-12T23:53:48.390Z,0.50
2018-02-12T23:56:15.821Z,0.50
2018-02-12T23:58:43.281Z,0.50
